Time;durP1;ratioP1;P1;durP2;ratioP2;P2;SDS_P1;SDS_P2;PMS_P1;PMS_P2;Temp;Humidity;BMP_temperature;BMP_pressure;BME280_temperature;BME280_humidity;BME280_pressure;Samples;Min_cycle;Max_cycle;Signal;HPM_P1;HPM_P2
2022/05/23 00:01:53;;;;;;;6.80;2.95;;;22.10;72.70;;;;;;5073617;28;20053;-58
2022/05/23 00:04:19;;;;;;;4.20;2.63;;;22.10;73.10;;;;;;5073397;28;20036;-58
2022/05/23 00:06:45;;;;;;;5.47;3.00;;;22.10;73.40;;;;;;5073706;28;20099;-59
2022/05/23 00:09:11;;;;;;;4.85;2.88;;;22.00;73.70;;;;;;5073416;28;20039;-59
2022/05/23 00:11:37;;;;;;;4.60;2.80;;;22.00;73.30;;;;;;5073304;28;20031;-57
2022/05/23 00:14:03;;;;;;;4.10;2.67;;;22.00;73.60;;;;;;5073200;28;20041;-60
2022/05/23 00:16:33;;;;;;;4.75;2.58;;;21.90;74.10;;;;;;5073589;28;20024;-58
2022/05/23 00:18:59;;;;;;;4.30;2.40;;;22.00;74.20;;;;;;5073637;28;20021;-59
2022/05/23 00:21:25;;;;;;;4.10;2.60;;;21.90;74.50;;;;;;5073029;28;20036;-58
2022/05/23 00:23:50;;;;;;;5.97;2.70;;;21.90;74.70;;;;;;5072744;28;20024;-58
2022/05/23 00:26:19;;;;;;;5.88;2.80;;;21.90;75.00;;;;;;5073412;28;20029;-59
2022/05/23 00:28:45;;;;;;;5.55;3.35;;;21.80;74.50;;;;;;5073545;28;20020;-58
2022/05/23 00:31:11;;;;;;;3.47;2.30;;;21.80;74.90;;;;;;5073024;28;20351;-58
2022/05/23 00:36:25;;;;;;;4.45;2.90;;;21.80;74.80;;;;;;5073431;28;20031;-58
2022/05/23 00:38:51;;;;;;;3.50;2.85;;;21.80;74.70;;;;;;5073140;28;20032;-58
2022/05/23 00:44:08;;;;;;;5.45;2.53;;;21.70;75.20;;;;;;5053554;28;20082;-58
2022/05/23 00:46:34;;;;;;;7.55;2.50;;;21.70;75.70;;;;;;5053193;28;20028;-58
2022/05/23 00:49:02;;;;;;;4.95;3.17;;;21.70;75.30;;;;;;5055903;28;20116;-58
2022/05/23 00:51:29;;;;;;;5.93;2.85;;;21.70;75.30;;;;;;5072959;28;20036;-59
2022/05/23 00:53:59;;;;;;;6.20;3.22;;;21.70;75.70;;;;;;5073002;28;20029;-67
2022/05/23 00:56:31;;;;;;;4.30;3.05;;;21.70;75.50;;;;;;5073104;28;20102;-67
2022/05/23 00:59:01;;;;;;;5.93;3.65;;;21.70;75.50;;;;;;5072917;28;20028;-59
2022/05/23 01:01:29;;;;;;;5.88;3.20;;;21.80;75.20;;;;;;5072943;28;20020;-58
2022/05/23 01:03:55;;;;;;;4.65;3.00;;;21.70;75.30;;;;;;5072744;28;20017;-58
2022/05/23 01:06:21;;;;;;;4.88;3.28;;;21.60;75.20;;;;;;5072506;28;20434;-60
2022/05/23 01:08:49;;;;;;;7.07;3.35;;;21.60;75.30;;;;;;5072812;28;20358;-58
2022/05/23 01:11:15;;;;;;;5.47;3.28;;;21.60;75.40;;;;;;5073872;28;20544;-59
2022/05/23 01:13:41;;;;;;;6.82;3.13;;;21.60;75.10;;;;;;5077137;28;20108;-69
2022/05/23 01:16:06;;;;;;;4.57;2.78;;;21.60;75.80;;;;;;5076141;28;20052;-65
2022/05/23 01:18:32;;;;;;;5.97;2.95;;;21.60;76.20;;;;;;5060354;28;20076;-63
2022/05/23 01:21:02;;;;;;;4.10;2.63;;;21.60;77.00;;;;;;5056801;28;20107;-59
2022/05/23 01:23:41;;;;;;;5.63;3.20;;;21.60;77.10;;;;;;5056643;28;20029;-58
2022/05/23 01:26:07;;;;;;;5.25;3.50;;;21.60;77.20;;;;;;5056925;28;20021;-59
2022/05/23 01:28:34;;;;;;;7.93;3.35;;;21.60;77.10;;;;;;5055241;28;20032;-58
2022/05/23 01:31:00;;;;;;;5.80;3.00;;;21.60;77.70;;;;;;5056074;28;20017;-58
2022/05/23 01:33:26;;;;;;;7.38;3.47;;;21.50;77.30;;;;;;5056384;28;20033;-59
2022/05/23 01:35:51;;;;;;;3.35;2.90;;;21.50;77.50;;;;;;5056686;28;20025;-58
2022/05/23 01:38:17;;;;;;;5.43;3.13;;;21.50;77.70;;;;;;5056207;28;20466;-58
2022/05/23 01:40:42;;;;;;;5.13;3.20;;;21.50;78.10;;;;;;5056502;28;20025;-58
2022/05/23 01:43:08;;;;;;;5.25;3.25;;;21.50;78.00;;;;;;5056533;28;20032;-58
2022/05/23 01:45:37;;;;;;;8.02;3.60;;;21.50;78.10;;;;;;5056308;28;20049;-58
2022/05/23 01:48:04;;;;;;;7.45;3.78;;;21.50;78.20;;;;;;5056362;28;20025;-58
2022/05/23 01:50:30;;;;;;;7.88;4.18;;;21.50;77.90;;;;;;5056049;28;20021;-58
2022/05/23 01:52:58;;;;;;;6.28;4.18;;;21.50;78.00;;;;;;5056303;28;20045;-58
2022/05/23 01:55:23;;;;;;;5.13;3.58;;;21.50;78.20;;;;;;5056107;28;20031;-58
2022/05/23 01:57:50;;;;;;;6.57;3.80;;;21.40;78.20;;;;;;5056410;28;20029;-58
2022/05/23 02:03:01;;;;;;;8.18;4.53;;;21.50;75.80;;;;;;5056431;28;20036;-59
2022/05/23 02:05:27;;;;;;;9.88;4.50;;;21.50;75.40;;;;;;5055862;28;20108;-57
2022/05/23 02:07:53;;;;;;;6.47;4.65;;;21.40;75.30;;;;;;5055958;28;20029;-58
2022/05/23 02:10:20;;;;;;;7.70;3.92;;;21.40;75.60;;;;;;5055879;28;20099;-58
2022/05/23 02:12:46;;;;;;;5.72;4.47;;;21.40;76.30;;;;;;5055846;28;20041;-57
2022/05/23 02:15:13;;;;;;;5.82;3.63;;;21.40;77.30;;;;;;5055918;28;20017;-59
2022/05/23 02:17:38;;;;;;;5.50;4.35;;;21.40;78.00;;;;;;5070941;28;20087;-58
2022/05/23 02:20:06;;;;;;;7.05;4.85;;;21.30;78.50;;;;;;5074834;28;20025;-58
2022/05/23 02:22:32;;;;;;;7.75;5.22;;;21.40;77.70;;;;;;5075325;28;20052;-59
2022/05/23 02:24:58;;;;;;;7.90;5.63;;;21.40;77.50;;;;;;5075841;28;20458;-58
2022/05/23 02:27:23;;;;;;;6.28;4.32;;;21.50;76.60;;;;;;5075745;28;20067;-60
2022/05/23 02:29:49;;;;;;;8.43;4.97;;;21.40;76.00;;;;;;5075422;28;20017;-58
2022/05/23 02:32:14;;;;;;;7.75;5.47;;;21.40;75.80;;;;;;5075601;28;20427;-58
2022/05/23 02:34:41;;;;;;;10.48;6.20;;;21.50;75.20;;;;;;5075148;28;20025;-59
2022/05/23 02:37:08;;;;;;;9.65;6.18;;;21.50;75.30;;;;;;5075419;28;20081;-62
2022/05/23 02:39:34;;;;;;;9.32;5.60;;;21.50;74.60;;;;;;5075399;28;20027;-59
2022/05/23 02:41:59;;;;;;;8.95;6.53;;;21.40;74.50;;;;;;5057854;28;20029;-59
2022/05/23 02:44:25;;;;;;;7.15;5.63;;;21.50;74.50;;;;;;5075474;28;20025;-59
2022/05/23 02:46:50;;;;;;;7.45;5.70;;;21.40;74.40;;;;;;5075396;28;20483;-58
2022/05/23 02:49:16;;;;;;;8.25;6.03;;;21.40;74.40;;;;;;5075043;28;20029;-59
2022/05/23 02:51:41;;;;;;;8.75;5.80;;;21.30;75.00;;;;;;5075289;28;20025;-58
2022/05/23 02:54:07;;;;;;;6.80;5.90;;;21.30;75.10;;;;;;5075470;28;20074;-58
2022/05/23 02:56:34;;;;;;;8.63;7.07;;;21.20;75.00;;;;;;5075442;28;20062;-65
2022/05/23 02:59:00;;;;;;;7.38;5.97;;;21.30;74.80;;;;;;5075201;28;20035;-58
2022/05/23 03:01:25;;;;;;;8.38;6.00;;;21.30;74.50;;;;;;5075148;28;20028;-58
2022/05/23 03:03:51;;;;;;;8.65;6.18;;;21.30;74.60;;;;;;5074669;28;20028;-59
2022/05/23 03:06:16;;;;;;;10.68;6.95;;;21.30;74.80;;;;;;5056995;28;20029;-58
2022/05/23 03:08:42;;;;;;;9.60;6.95;;;21.30;74.60;;;;;;5075027;28;20032;-58
2022/05/23 03:11:08;;;;;;;6.72;5.90;;;21.40;74.60;;;;;;5074630;28;20040;-58
2022/05/23 03:13:35;;;;;;;8.07;6.32;;;21.20;75.00;;;;;;5074781;28;20024;-68
2022/05/23 03:16:01;;;;;;;11.07;6.97;;;21.20;75.20;;;;;;5074774;28;20024;-68
2022/05/23 03:18:28;;;;;;;13.68;7.63;;;21.20;75.30;;;;;;5074479;28;20111;-68
2022/05/23 03:21:01;;;;;;;16.33;7.82;;;21.20;75.10;;;;;;5074464;28;20052;-65
2022/05/23 03:28:55;;;;;;;11.07;6.47;;;21.20;75.60;;;;;;5074481;28;20437;-59
2022/05/23 03:31:21;;;;;;;8.23;5.68;;;21.30;75.60;;;;;;5074040;28;20477;-58
2022/05/23 03:33:46;;;;;;;11.60;6.30;;;21.30;75.40;;;;;;5073854;28;20033;-58
2022/05/23 03:36:12;;;;;;;12.82;7.10;;;21.30;75.60;;;;;;5074328;28;20024;-58
2022/05/23 03:38:37;;;;;;;12.10;7.30;;;21.30;75.60;;;;;;5074444;28;20062;-61
2022/05/23 03:41:09;;;;;;;10.82;6.95;;;21.30;75.50;;;;;;5074086;28;20020;-58
2022/05/23 03:43:34;;;;;;;13.43;6.53;;;21.30;75.50;;;;;;5074278;28;20074;-60
2022/05/23 03:46:13;;;;;;;13.43;6.80;;;21.30;75.60;;;;;;5073769;28;20024;-57
2022/05/23 03:48:40;;;;;;;10.98;6.55;;;21.30;75.60;;;;;;5074240;28;20056;-58
2022/05/23 03:51:07;;;;;;;10.98;6.22;;;21.20;75.60;;;;;;5074027;28;20024;-58
2022/05/23 03:53:33;;;;;;;11.45;6.97;;;21.20;75.70;;;;;;5074105;28;20082;-58
2022/05/23 03:55:59;;;;;;;13.80;6.82;;;21.20;75.70;;;;;;5073996;28;20103;-58
2022/05/23 03:58:26;;;;;;;12.13;6.75;;;21.20;76.00;;;;;;5073926;28;20466;-67
2022/05/23 04:00:52;;;;;;;12.23;7.38;;;21.20;76.30;;;;;;5073670;28;20032;-68
2022/05/23 04:03:19;;;;;;;10.77;6.70;;;21.20;76.20;;;;;;5073928;28;20385;-67
2022/05/23 04:05:45;;;;;;;12.18;7.13;;;21.20;76.80;;;;;;5073736;28;20025;-67
2022/05/23 04:08:12;;;;;;;12.45;6.82;;;21.20;76.10;;;;;;5073739;28;20024;-59
2022/05/23 04:10:41;;;;;;;12.30;7.45;;;21.10;76.10;;;;;;5073644;28;20583;-58
2022/05/23 04:13:07;;;;;;;11.65;7.07;;;21.10;76.00;;;;;;5073531;28;20037;-58
2022/05/23 04:15:33;;;;;;;10.45;6.85;;;21.10;76.00;;;;;;5073512;28;20016;-58
2022/05/23 04:17:58;;;;;;;13.50;7.55;;;21.10;76.20;;;;;;5073313;28;20024;-58
2022/05/23 04:20:24;;;;;;;10.98;6.65;;;21.10;76.30;;;;;;5073576;28;20024;-65
2022/05/23 04:22:50;;;;;;;11.95;7.05;;;21.10;76.40;;;;;;5073378;28;20111;-64
2022/05/23 04:25:16;;;;;;;12.13;7.10;;;21.10;76.40;;;;;;5073689;28;20016;-59
2022/05/23 04:27:41;;;;;;;13.93;7.53;;;21.10;76.50;;;;;;5073320;28;20111;-66
2022/05/23 04:30:09;;;;;;;12.13;7.50;;;21.10;76.60;;;;;;5073095;28;20525;-58
2022/05/23 04:35:20;;;;;;;8.43;6.78;;;21.00;76.50;;;;;;5073698;28;20484;-59
2022/05/23 04:37:48;;;;;;;10.73;6.93;;;21.00;76.50;;;;;;5073203;28;20024;-58
2022/05/23 04:40:16;;;;;;;11.02;6.65;;;21.00;76.60;;;;;;5073270;28;20024;-59
2022/05/23 04:42:42;;;;;;;13.70;8.15;;;21.00;76.70;;;;;;5073413;28;20025;-59
2022/05/23 04:45:09;;;;;;;14.05;7.60;;;21.00;76.70;;;;;;5072593;28;20032;-58
2022/05/23 04:50:19;;;;;;;19.63;8.77;;;21.00;76.80;;;;;;5076296;28;20082;-58
2022/05/23 04:52:46;;;;;;;14.63;8.30;;;21.00;76.80;;;;;;5072558;28;20040;-58
2022/05/23 04:55:12;;;;;;;13.57;8.13;;;21.00;77.20;;;;;;5077190;28;20511;-58
2022/05/23 04:57:38;;;;;;;13.55;7.93;;;21.00;77.10;;;;;;5076543;28;20020;-58
2022/05/23 05:00:07;;;;;;;14.30;8.50;;;21.00;77.30;;;;;;5080439;28;20024;-65
2022/05/23 05:02:34;;;;;;;16.27;7.90;;;20.90;77.30;;;;;;5063524;28;20032;-65
2022/05/23 05:04:59;;;;;;;13.18;8.45;;;20.90;77.50;;;;;;5070230;28;20052;-65
2022/05/23 05:07:25;;;;;;;10.98;7.85;;;20.90;77.70;;;;;;5071159;28;20056;-65
2022/05/23 05:09:51;;;;;;;13.70;7.88;;;20.90;77.60;;;;;;5072862;28;20011;-66
2022/05/23 05:12:16;;;;;;;12.27;8.23;;;20.90;78.00;;;;;;5072058;28;20094;-66
2022/05/23 05:14:42;;;;;;;13.40;8.07;;;20.90;77.60;;;;;;5067965;28;20021;-67
2022/05/23 05:17:08;;;;;;;13.98;8.57;;;20.90;77.60;;;;;;5073524;28;20037;-66
2022/05/23 05:19:33;;;;;;;12.05;8.55;;;20.90;77.80;;;;;;5072159;28;20023;-68
2022/05/23 05:21:59;;;;;;;15.35;8.00;;;20.90;77.90;;;;;;5070784;28;20025;-67
2022/05/23 05:24:24;;;;;;;15.88;7.38;;;20.80;78.30;;;;;;5072519;28;20095;-67
2022/05/23 05:26:50;;;;;;;12.48;8.20;;;20.80;78.20;;;;;;5079445;28;20120;-67
2022/05/23 05:29:16;;;;;;;11.80;8.10;;;20.80;78.40;;;;;;5072344;28;20023;-67
2022/05/23 05:32:08;;;;;;;13.38;8.82;;;20.80;78.00;;;;;;5072667;28;20032;-67
2022/05/23 05:34:55;;;;;;;11.60;8.17;;;20.80;78.00;;;;;;5033760;28;20111;-67
2022/05/23 05:37:28;;;;;;;10.27;8.52;;;20.90;78.10;;;;;;5070721;28;20280;-66
2022/05/23 05:39:56;;;;;;;11.23;8.18;;;20.80;78.20;;;;;;5068441;28;20032;-68
2022/05/23 05:42:31;;;;;;;17.38;8.02;;;20.80;78.40;;;;;;5072534;28;20025;-67
2022/05/23 05:45:01;;;;;;;16.10;8.40;;;20.80;78.70;;;;;;5072245;28;20024;-67
2022/05/23 05:47:30;;;;;;;11.60;8.85;;;20.80;78.90;;;;;;5085308;28;20358;-67
2022/05/23 05:49:59;;;;;;;15.77;9.10;;;20.90;78.80;;;;;;5074655;28;20436;-68
2022/05/23 05:52:28;;;;;;;13.95;9.40;;;20.90;78.90;;;;;;5072387;28;20025;-66
2022/05/23 05:54:54;;;;;;;13.95;9.63;;;20.90;79.10;;;;;;5070228;28;20017;-65
2022/05/23 05:57:22;;;;;;;19.50;9.88;;;20.90;79.40;;;;;;5072147;28;20043;-67
2022/05/23 05:59:49;;;;;;;15.05;9.20;;;20.90;79.70;;;;;;5078921;28;20047;-66
2022/05/23 06:02:15;;;;;;;16.85;9.40;;;20.90;79.70;;;;;;5075033;28;20025;-65
2022/05/23 06:04:40;;;;;;;13.43;8.95;;;20.90;79.70;;;;;;5074377;28;20031;-68
2022/05/23 06:12:34;;;;;;;15.75;8.25;;;20.90;80.40;;;;;;5073181;28;20143;-68
2022/05/23 06:15:01;;;;;;;15.50;7.88;;;20.90;80.50;;;;;;5073535;28;20099;-67
2022/05/23 06:17:26;;;;;;;12.27;6.88;;;20.90;80.20;;;;;;5075669;28;20164;-67
2022/05/23 06:19:52;;;;;;;12.00;7.50;;;20.90;80.30;;;;;;5075667;28;20529;-67
2022/05/23 06:22:18;;;;;;;12.50;7.13;;;20.90;81.10;;;;;;5075482;28;20028;-63
2022/05/23 06:24:49;;;;;;;12.45;5.55;;;20.90;80.50;;;;;;5057772;28;20461;-67
2022/05/23 06:27:14;;;;;;;11.88;7.93;;;21.00;80.30;;;;;;5075961;28;20485;-66
2022/05/23 06:29:40;;;;;;;12.20;7.57;;;21.00;80.70;;;;;;5075466;28;20025;-68
2022/05/23 06:32:06;;;;;;;7.53;4.75;;;21.00;80.90;;;;;;5057935;28;20044;-68
2022/05/23 06:34:31;;;;;;;11.52;7.40;;;21.00;80.70;;;;;;5075371;28;20472;-63
2022/05/23 06:36:58;;;;;;;9.80;5.50;;;21.10;81.00;;;;;;5075629;28;20493;-68
2022/05/23 06:39:25;;;;;;;10.25;5.20;;;21.10;80.80;;;;;;5075136;28;20020;-67
2022/05/23 06:41:51;;;;;;;12.90;7.15;;;21.00;81.00;;;;;;5075673;28;20059;-59
2022/05/23 06:44:17;;;;;;;8.20;4.72;;;21.10;81.00;;;;;;5057612;28;20461;-68
2022/05/23 06:46:42;;;;;;;11.15;4.57;;;21.00;80.80;;;;;;5075380;28;20028;-67
2022/05/23 06:49:08;;;;;;;10.15;6.32;;;21.10;80.70;;;;;;5075157;28;20017;-67
2022/05/23 06:51:35;;;;;;;11.13;4.50;;;21.10;81.20;;;;;;5075350;28;20052;-59
2022/05/23 06:54:01;;;;;;;9.13;6.22;;;21.10;80.90;;;;;;5074820;28;20043;-67
2022/05/23 06:56:28;;;;;;;9.55;7.28;;;21.10;81.10;;;;;;5075108;28;20405;-66
2022/05/23 06:58:54;;;;;;;9.63;5.30;;;21.10;81.50;;;;;;5075324;28;20043;-66
2022/05/23 07:01:20;;;;;;;8.27;4.60;;;21.10;81.30;;;;;;5075237;28;20016;-66
2022/05/23 07:03:46;;;;;;;9.50;5.10;;;21.20;81.30;;;;;;5075008;28;20017;-67
2022/05/23 07:14:26;;;;;;;7.03;3.70;;;21.20;80.90;;;;;;5075235;28;20116;-67
2022/05/23 07:16:52;;;;;;;10.27;4.53;;;21.20;80.90;;;;;;5074622;28;20021;-68
2022/05/23 07:19:18;;;;;;;15.23;9.38;;;21.20;80.90;;;;;;5074863;28;20029;-67
2022/05/23 07:21:43;;;;;;;14.23;9.18;;;21.30;82.10;;;;;;5074620;28;20035;-67
2022/05/23 07:24:09;;;;;;;14.18;9.15;;;21.30;83.30;;;;;;5074597;28;20064;-67
2022/05/23 07:26:37;;;;;;;15.05;8.65;;;21.30;83.50;;;;;;5074439;28;20013;-67
2022/05/23 07:29:03;;;;;;;9.15;6.72;;;21.30;83.60;;;;;;5074667;28;20027;-66
2022/05/23 07:31:29;;;;;;;8.80;6.20;;;21.30;83.00;;;;;;5074428;28;20016;-66
2022/05/23 07:33:54;;;;;;;10.18;7.55;;;21.30;82.90;;;;;;5074504;28;20133;-68
2022/05/23 07:36:20;;;;;;;11.07;8.70;;;21.30;83.60;;;;;;5074368;28;20500;-66
2022/05/23 07:38:47;;;;;;;13.57;8.65;;;21.30;83.90;;;;;;5074177;28;20385;-68
2022/05/23 07:41:13;;;;;;;15.45;9.30;;;21.30;83.10;;;;;;5074049;28;20412;-67
2022/05/23 07:43:41;;;;;;;15.13;9.77;;;21.40;83.70;;;;;;5074184;28;20020;-65
2022/05/23 07:46:12;;;;;;;13.70;9.13;;;21.30;84.10;;;;;;5074194;28;20024;-68
2022/05/23 07:48:39;;;;;;;12.10;9.32;;;21.40;84.30;;;;;;5072380;28;20020;-68
2022/05/23 07:51:05;;;;;;;15.07;9.05;;;21.40;83.90;;;;;;5078303;28;20028;-65
2022/05/23 08:01:45;;;;;;;15.80;9.27;;;21.40;84.70;;;;;;5072529;28;20599;-68
2022/05/23 08:04:11;;;;;;;16.80;10.70;;;21.40;84.30;;;;;;5087195;28;20027;-67
2022/05/23 08:06:36;;;;;;;12.77;9.98;;;21.40;84.60;;;;;;5076315;28;20020;-65
2022/05/23 08:09:02;;;;;;;13.95;9.77;;;21.40;85.00;;;;;;5087504;28;20478;-66
2022/05/23 08:11:28;;;;;;;13.93;8.80;;;21.40;84.80;;;;;;5081012;28;20032;-67
2022/05/23 08:13:56;;;;;;;13.63;8.40;;;21.40;84.00;;;;;;5080008;28;20027;-63
2022/05/23 08:16:22;;;;;;;13.93;7.95;;;21.40;84.00;;;;;;5080829;28;20105;-69
2022/05/23 08:18:47;;;;;;;10.40;7.53;;;21.40;83.70;;;;;;5072759;28;20079;-68
2022/05/23 08:21:15;;;;;;;13.18;7.88;;;21.50;83.80;;;;;;5071817;28;20121;-69
2022/05/23 08:23:42;;;;;;;11.20;7.75;;;21.50;84.10;;;;;;5072616;28;20052;-69
2022/05/23 08:26:08;;;;;;;11.27;8.13;;;21.50;84.00;;;;;;5073011;28;20032;-66
2022/05/23 08:28:33;;;;;;;13.65;7.88;;;21.50;83.70;;;;;;5072905;28;20028;-65
2022/05/23 08:30:59;;;;;;;11.40;7.43;;;21.50;82.80;;;;;;5072486;28;20028;-68
2022/05/23 08:33:24;;;;;;;11.35;4.85;;;21.50;83.20;;;;;;5071535;28;20036;-65
2022/05/23 08:35:50;;;;;;;7.88;3.67;;;21.60;83.00;;;;;;5072599;28;20069;-68
2022/05/23 08:38:15;;;;;;;5.28;3.30;;;21.50;82.60;;;;;;5072626;28;20028;-70
2022/05/23 08:40:55;;;;;;;8.43;4.30;;;21.60;82.70;;;;;;5072431;28;20062;-67
2022/05/23 08:43:31;;;;;;;7.18;3.70;;;21.60;82.70;;;;;;5071761;28;20059;-66
2022/05/23 08:45:58;;;;;;;6.22;2.83;;;21.60;82.50;;;;;;5072636;28;20052;-66
2022/05/23 08:48:27;;;;;;;5.80;3.28;;;21.60;82.50;;;;;;5072431;28;20025;-67
2022/05/23 08:51:07;;;;;;;5.20;2.78;;;21.60;80.90;;;;;;5072306;28;20089;-67
2022/05/23 08:53:36;;;;;;;3.67;2.70;;;21.70;80.20;;;;;;5071627;28;20390;-66
2022/05/23 08:56:11;;;;;;;5.07;2.70;;;21.70;81.10;;;;;;5072511;28;20027;-67
2022/05/23 08:58:40;;;;;;;4.40;2.50;;;21.70;81.10;;;;;;5071344;28;20059;-68
2022/05/23 09:01:15;;;;;;;4.45;2.90;;;21.70;80.60;;;;;;5054364;28;20461;-62
2022/05/23 09:03:55;;;;;;;4.43;2.50;;;21.80;79.60;;;;;;5071666;28;20033;-68
2022/05/23 09:06:30;;;;;;;6.07;3.08;;;21.80;80.70;;;;;;5072302;28;20025;-67
2022/05/23 09:09:02;;;;;;;4.60;2.25;;;21.80;81.10;;;;;;5071842;28;20465;-69
2022/05/23 09:11:43;;;;;;;4.25;2.55;;;21.80;79.20;;;;;;5071795;28;20115;-67
2022/05/23 09:14:12;;;;;;;4.13;2.70;;;21.80;79.80;;;;;;5071885;28;20536;-69
2022/05/23 09:16:48;;;;;;;6.15;2.78;;;21.90;80.70;;;;;;5072466;28;20100;-68
2022/05/23 09:19:21;;;;;;;5.20;2.50;;;21.90;76.60;;;;;;5053649;28;20028;-67
2022/05/23 09:24:50;;;;;;;4.38;2.40;;;22.00;78.30;;;;;;5072101;28;20440;-67
2022/05/23 09:28:07;;;;;;;5.78;2.50;;;22.00;78.80;;;;;;5072325;28;20020;-69
2022/05/23 09:30:35;;;;;;;4.43;2.30;;;22.00;79.10;;;;;;5045749;28;20090;-69
2022/05/23 09:33:00;;;;;;;4.05;2.72;;;22.00;78.90;;;;;;5074835;28;20110;-65
2022/05/23 09:35:46;;;;;;;4.13;2.60;;;22.10;79.30;;;;;;5076483;28;20067;-68
2022/05/23 09:38:52;;;;;;;3.63;2.15;;;22.10;76.90;;;;;;5076136;28;20131;-68
2022/05/23 09:41:28;;;;;;;3.88;2.15;;;22.10;78.20;;;;;;5067779;28;20105;-68
2022/05/23 09:49:26;;;;;;;4.57;2.20;;;22.20;77.80;;;;;;5075984;28;20042;-69
2022/05/23 09:52:01;;;;;;;4.93;2.78;;;22.20;78.20;;;;;;5076416;28;20489;-67
2022/05/23 09:54:33;;;;;;;5.15;2.50;;;22.20;77.90;;;;;;5076322;28;20036;-69
2022/05/23 09:57:03;;;;;;;4.80;3.17;;;22.30;77.00;;;;;;5076394;28;20024;-69
2022/05/23 09:59:32;;;;;;;7.35;4.15;;;22.30;77.30;;;;;;5075873;28;20361;-69
2022/05/23 10:02:04;;;;;;;7.25;3.65;;;22.30;77.60;;;;;;5076385;28;20023;-69
2022/05/23 10:04:31;;;;;;;7.03;3.97;;;22.40;77.70;;;;;;5075741;28;20091;-68
2022/05/23 10:06:57;;;;;;;6.28;3.95;;;22.40;77.40;;;;;;5076203;28;20461;-69
2022/05/23 10:09:26;;;;;;;7.50;3.92;;;22.40;77.50;;;;;;5075778;28;20431;-63
2022/05/23 10:11:56;;;;;;;7.00;4.63;;;22.50;77.70;;;;;;5075718;28;20116;-69
2022/05/23 10:14:24;;;;;;;6.80;3.42;;;22.50;77.70;;;;;;5075996;28;20383;-69
2022/05/23 10:16:54;;;;;;;7.15;4.30;;;22.50;77.50;;;;;;5075764;28;20029;-68
2022/05/23 10:19:39;;;;;;;9.63;4.50;;;22.50;77.70;;;;;;5075674;28;20028;-69
2022/05/23 10:22:25;;;;;;;8.55;4.63;;;22.50;77.70;;;;;;5076274;28;20025;-69
2022/05/23 10:25:03;;;;;;;11.40;4.72;;;22.60;77.40;;;;;;5075743;28;20036;-69
2022/05/23 10:27:35;;;;;;;6.82;3.65;;;22.60;77.50;;;;;;5075422;28;20038;-69
2022/05/23 10:30:05;;;;;;;6.97;2.45;;;22.60;77.50;;;;;;5075685;28;20086;-65
2022/05/23 10:32:50;;;;;;;12.60;3.28;;;22.50;77.60;;;;;;5075586;28;20418;-68
2022/05/23 10:35:34;;;;;;;13.35;4.10;;;22.50;77.80;;;;;;5075677;28;20036;-61
2022/05/23 10:43:47;;;;;;;7.38;4.25;;;22.60;77.30;;;;;;5074484;28;20035;-67
2022/05/23 10:46:13;;;;;;;5.88;3.78;;;22.60;76.70;;;;;;5075135;28;20020;-68
2022/05/23 10:48:42;;;;;;;6.28;3.80;;;22.60;76.10;;;;;;5075324;28;20070;-68
2022/05/23 10:51:11;;;;;;;6.25;3.75;;;22.60;76.80;;;;;;5075342;28;20027;-62
2022/05/23 10:53:37;;;;;;;5.25;3.28;;;22.60;78.30;;;;;;5075503;28;20041;-69
2022/05/23 10:56:15;;;;;;;4.85;3.55;;;22.60;79.00;;;;;;5075389;28;20069;-69
2022/05/23 10:58:59;;;;;;;6.60;4.05;;;22.70;79.60;;;;;;5075116;28;20055;-68
2022/05/23 11:01:48;;;;;;;5.60;3.75;;;22.70;80.70;;;;;;5070365;28;20107;-63
2022/05/23 11:04:19;;;;;;;6.65;3.25;;;22.70;81.40;;;;;;5058310;28;20445;-67
2022/05/23 11:07:04;;;;;;;4.93;3.55;;;22.70;81.10;;;;;;5074229;28;20027;-69
2022/05/23 11:09:32;;;;;;;11.15;4.32;;;22.60;80.10;;;;;;5074408;28;20477;-69
2022/05/23 11:12:22;;;;;;;6.35;4.22;;;22.70;80.50;;;;;;5073362;28;20087;-68
2022/05/23 11:15:25;;;;;;;7.57;3.55;;;22.70;80.50;;;;;;5073590;28;20099;-68
2022/05/23 11:17:59;;;;;;;6.82;4.57;;;22.70;80.70;;;;;;5074441;28;20103;-63
2022/05/23 11:20:39;;;;;;;6.65;4.20;;;22.70;81.20;;;;;;5073908;28;20036;-65
2022/05/23 11:23:29;;;;;;;8.70;4.18;;;22.70;81.30;;;;;;5073613;28;20051;-69
2022/05/23 11:26:21;;;;;;;9.88;4.95;;;22.70;81.80;;;;;;5074112;28;20054;-71
2022/05/23 11:34:32;;;;;;;7.57;4.88;;;22.70;81.70;;;;;;5074367;28;20082;-68
2022/05/23 11:39:52;;;;;;;10.93;4.10;;;22.70;80.60;;;;;;5073588;28;20032;-68
2022/05/23 11:42:29;;;;;;;4.35;2.20;;;22.70;80.40;;;;;;5073056;28;20393;-69
2022/05/23 11:47:56;;;;;;;4.18;1.88;;;22.80;78.90;;;;;;5073727;28;20093;-68
2022/05/23 11:50:31;;;;;;;3.60;2.15;;;22.70;78.60;;;;;;5073893;28;20035;-66
2022/05/23 11:53:23;;;;;;;7.28;3.10;;;22.70;78.70;;;;;;5072836;28;20040;-60
2022/05/23 11:55:52;;;;;;;12.60;5.80;;;22.70;79.70;;;;;;5072415;28;20024;-60
2022/05/23 11:58:36;;;;;;;6.53;3.10;;;22.70;84.10;;;;;;5073508;28;20032;-60
2022/05/23 12:01:04;;;;;;;4.43;2.83;;;22.70;80.80;;;;;;5072196;28;20160;-61
2022/05/23 12:03:48;;;;;;;8.63;3.63;;;22.70;80.20;;;;;;5073000;28;20025;-61
2022/05/23 12:06:23;;;;;;;8.25;3.80;;;22.70;79.80;;;;;;5071497;28;20039;-59
2022/05/23 12:08:58;;;;;;;8.60;4.40;;;22.70;79.70;;;;;;5072784;28;20051;-59
2022/05/23 12:11:26;;;;;;;10.52;4.82;;;22.80;83.00;;;;;;5073031;28;20473;-60
2022/05/23 12:13:58;;;;;;;9.55;6.07;;;22.70;84.50;;;;;;5068992;28;20546;-59
2022/05/23 12:17:01;;;;;;;10.63;5.85;;;22.80;87.50;;;;;;5070140;28;20468;-62
2022/05/23 12:19:32;;;;;;;;;;;22.80;88.90;;;;;;5071929;28;20024;-62
2022/05/23 12:22:16;;;;;;;20.48;18.17;;;22.80;88.20;;;;;;5072086;28;19916;-59
2022/05/23 12:25:07;;;;;;;29.90;26.65;;;22.80;89.80;;;;;;5071396;28;20037;-62
2022/05/23 12:27:43;;;;;;;29.10;26.40;;;22.80;90.20;;;;;;5071861;28;20054;-59
2022/05/23 12:30:17;;;;;;;32.78;29.35;;;22.70;90.60;;;;;;5072769;28;20025;-62
2022/05/23 12:32:58;;;;;;;32.58;29.35;;;22.80;90.90;;;;;;5071964;28;20058;-60
2022/05/23 12:35:45;;;;;;;33.88;29.50;;;22.70;90.90;;;;;;5071587;28;20024;-59
2022/05/23 12:38:32;;;;;;;32.30;29.15;;;22.70;90.60;;;;;;5053879;28;20020;-60
2022/05/23 12:41:10;;;;;;;32.90;29.40;;;22.70;91.40;;;;;;5072293;28;20051;-62
2022/05/23 12:43:43;;;;;;;34.05;30.67;;;22.60;91.60;;;;;;5071365;28;20058;-65
2022/05/23 12:46:36;;;;;;;31.77;28.48;;;22.60;91.60;;;;;;5092497;28;20024;-61
2022/05/23 12:49:28;;;;;;;34.05;30.65;;;22.60;91.50;;;;;;5092573;28;20030;-64
2022/05/23 12:52:20;;;;;;;31.92;27.88;;;22.60;92.30;;;;;;5092206;28;20016;-62
2022/05/23 12:55:13;;;;;;;31.80;28.58;;;22.60;92.60;;;;;;5092309;28;20085;-65
2022/05/23 12:58:01;;;;;;;32.58;29.38;;;22.60;92.60;;;;;;5066243;28;20527;-64
2022/05/23 13:00:36;;;;;;;28.83;25.77;;;22.60;92.50;;;;;;5074645;28;20028;-63
2022/05/23 13:03:14;;;;;;;30.35;27.40;;;22.60;91.80;;;;;;5069848;28;20093;-63
2022/05/23 13:06:12;;;;;;;30.85;27.75;;;22.60;92.30;;;;;;5072572;28;20086;-65
2022/05/23 13:08:51;;;;;;;28.63;25.73;;;22.50;92.00;;;;;;5069016;28;20412;-69
2022/05/23 13:11:38;;;;;;;29.63;26.63;;;22.50;91.60;;;;;;5069092;28;20029;-66
2022/05/23 13:14:04;;;;;;;30.77;27.52;;;22.60;91.80;;;;;;5075137;28;20041;-68
2022/05/23 13:16:32;;;;;;;31.83;28.55;;;22.50;92.00;;;;;;5071445;28;20042;-67
2022/05/23 13:22:05;;;;;;;31.67;28.55;;;22.50;92.30;;;;;;5071983;28;20036;-65
2022/05/23 13:24:55;;;;;;;33.80;30.67;;;22.50;92.10;;;;;;5071961;28;20162;-69
2022/05/23 13:27:31;;;;;;;32.13;29.10;;;22.50;92.40;;;;;;5070486;28;20759;-62
2022/05/23 13:29:59;;;;;;;28.30;25.60;;;22.50;92.40;;;;;;5071192;28;20017;-60
2022/05/23 13:32:27;;;;;;;32.30;29.02;;;22.50;92.30;;;;;;5072575;28;20036;-60
2022/05/23 13:34:54;;;;;;;33.88;30.48;;;22.50;92.50;;;;;;5072774;28;20108;-62
2022/05/23 13:37:31;;;;;;;35.83;32.42;;;22.50;92.90;;;;;;5069497;28;20028;-62
2022/05/23 13:40:08;;;;;;;31.92;28.60;;;22.50;93.10;;;;;;5065864;28;20470;-59
2022/05/23 13:42:33;;;;;;;29.27;26.17;;;22.50;92.80;;;;;;5054734;28;20032;-66
2022/05/23 13:45:17;;;;;;;26.63;23.92;;;22.50;92.70;;;;;;5071715;28;20396;-60
2022/05/23 13:47:55;;;;;;;27.85;24.95;;;22.50;92.40;;;;;;5071761;28;20093;-63
2022/05/23 13:50:44;;;;;;;26.30;23.70;;;22.50;92.20;;;;;;5070894;28;20482;-61
2022/05/23 13:53:12;;;;;;;26.63;23.77;;;22.40;92.20;;;;;;5069416;28;20131;-64
2022/05/23 13:55:42;;;;;;;22.88;19.42;;;22.40;92.10;;;;;;5069845;28;20028;-68
2022/05/23 13:58:13;;;;;;;23.23;20.88;;;22.40;91.50;;;;;;5069417;28;20020;-67
2022/05/23 14:00:42;;;;;;;24.50;22.00;;;22.40;91.60;;;;;;5066571;28;20024;-62
2022/05/23 14:03:17;;;;;;;22.98;18.17;;;22.40;91.60;;;;;;5070042;28;20099;-59
2022/05/23 14:05:49;;;;;;;17.33;15.55;;;22.40;91.60;;;;;;5078126;28;20156;-59
2022/05/23 14:08:20;;;;;;;17.77;14.98;;;22.40;90.90;;;;;;5067480;28;20107;-59